sensor_id;sensor_type;location;lat;lon;timestamp;temperature;humidity
52889;DHT22;41413;52.770;6.892;2024-02-04T00:01:31;8.20;99.90
52889;DHT22;41413;52.770;6.892;2024-02-04T00:03:58;8.10;99.90
52889;DHT22;41413;52.770;6.892;2024-02-04T00:06:25;8.10;99.90
52889;DHT22;41413;52.770;6.892;2024-02-04T00:08:52;8.10;99.90
52889;DHT22;41413;52.770;6.892;2024-02-04T00:11:19;8.10;99.90
52889;DHT22;41413;52.770;6.892;2024-02-04T00:13:46;8.00;99.90
52889;DHT22;41413;52.770;6.892;2024-02-04T00:16:14;8.00;99.90
52889;DHT22;41413;52.770;6.892;2024-02-04T00:18:41;7.90;99.90
52889;DHT22;41413;52.770;6.892;2024-02-04T00:21:08;8.00;99.90
52889;DHT22;41413;52.770;6.892;2024-02-04T00:23:34;8.00;99.90
52889;DHT22;41413;52.770;6.892;2024-02-04T00:26:01;8.00;99.90
52889;DHT22;41413;52.770;6.892;2024-02-04T00:28:28;8.00;99.90
52889;DHT22;41413;52.770;6.892;2024-02-04T00:30:55;7.90;99.90
52889;DHT22;41413;52.770;6.892;2024-02-04T00:33:23;8.00;99.90
52889;DHT22;41413;52.770;6.892;2024-02-04T00:35:50;8.00;99.90
52889;DHT22;41413;52.770;6.892;2024-02-04T00:38:17;8.00;99.90
52889;DHT22;41413;52.770;6.892;2024-02-04T00:40:44;8.00;99.90
52889;DHT22;41413;52.770;6.892;2024-02-04T00:43:10;8.00;99.90
52889;DHT22;41413;52.770;6.892;2024-02-04T00:45:37;8.00;99.90
52889;DHT22;41413;52.770;6.892;2024-02-04T00:48:04;7.90;99.90
52889;DHT22;41413;52.770;6.892;2024-02-04T00:50:31;7.90;99.90
52889;DHT22;41413;52.770;6.892;2024-02-04T00:52:58;8.00;99.90
52889;DHT22;41413;52.770;6.892;2024-02-04T00:55:25;7.90;99.90
52889;DHT22;41413;52.770;6.892;2024-02-04T00:57:51;7.90;99.90
52889;DHT22;41413;52.770;6.892;2024-02-04T01:00:19;7.90;99.90
52889;DHT22;41413;52.770;6.892;2024-02-04T01:02:46;7.90;99.90
52889;DHT22;41413;52.770;6.892;2024-02-04T01:05:12;7.90;99.90
52889;DHT22;41413;52.770;6.892;2024-02-04T01:07:41;7.90;99.90
52889;DHT22;41413;52.770;6.892;2024-02-04T01:10:08;7.90;99.90
52889;DHT22;41413;52.770;6.892;2024-02-04T01:12:36;7.80;99.90
52889;DHT22;41413;52.770;6.892;2024-02-04T01:15:03;7.70;99.90
52889;DHT22;41413;52.770;6.892;2024-02-04T01:17:32;7.70;99.90
52889;DHT22;41413;52.770;6.892;2024-02-04T01:20:00;7.60;99.90
52889;DHT22;41413;52.770;6.892;2024-02-04T01:22:27;7.60;99.90
52889;DHT22;41413;52.770;6.892;2024-02-04T01:24:54;7.60;99.90
52889;DHT22;41413;52.770;6.892;2024-02-04T01:27:21;7.70;99.90
52889;DHT22;41413;52.770;6.892;2024-02-04T01:29:48;7.70;99.90
52889;DHT22;41413;52.770;6.892;2024-02-04T01:32:14;7.70;99.90
52889;DHT22;41413;52.770;6.892;2024-02-04T01:34:41;7.70;99.90
52889;DHT22;41413;52.770;6.892;2024-02-04T01:37:08;7.90;99.90
52889;DHT22;41413;52.770;6.892;2024-02-04T01:39:35;7.90;99.90
52889;DHT22;41413;52.770;6.892;2024-02-04T01:42:02;7.90;99.90
52889;DHT22;41413;52.770;6.892;2024-02-04T01:44:29;7.90;99.90
52889;DHT22;41413;52.770;6.892;2024-02-04T01:46:56;7.90;99.90
52889;DHT22;41413;52.770;6.892;2024-02-04T01:49:24;7.90;99.90
52889;DHT22;41413;52.770;6.892;2024-02-04T01:51:53;7.90;99.90
52889;DHT22;41413;52.770;6.892;2024-02-04T01:54:22;7.90;99.90
52889;DHT22;41413;52.770;6.892;2024-02-04T01:56:51;7.80;99.90
52889;DHT22;41413;52.770;6.892;2024-02-04T01:59:23;7.70;99.90
52889;DHT22;41413;52.770;6.892;2024-02-04T02:01:54;7.70;99.90
52889;DHT22;41413;52.770;6.892;2024-02-04T02:04:21;7.70;99.90
52889;DHT22;41413;52.770;6.892;2024-02-04T02:06:48;7.70;99.90
52889;DHT22;41413;52.770;6.892;2024-02-04T02:09:15;7.70;99.90
52889;DHT22;41413;52.770;6.892;2024-02-04T02:11:45;7.80;99.90
52889;DHT22;41413;52.770;6.892;2024-02-04T02:14:17;7.70;99.90
52889;DHT22;41413;52.770;6.892;2024-02-04T02:16:45;7.60;99.90
52889;DHT22;41413;52.770;6.892;2024-02-04T02:22:19;7.60;99.90
52889;DHT22;41413;52.770;6.892;2024-02-04T02:24:51;7.50;99.90
52889;DHT22;41413;52.770;6.892;2024-02-04T02:27:18;7.50;99.90
52889;DHT22;41413;52.770;6.892;2024-02-04T02:29:45;7.40;99.90
52889;DHT22;41413;52.770;6.892;2024-02-04T02:32:12;7.50;99.90
52889;DHT22;41413;52.770;6.892;2024-02-04T02:34:39;7.50;99.90
52889;DHT22;41413;52.770;6.892;2024-02-04T02:40:02;7.40;99.90
52889;DHT22;41413;52.770;6.892;2024-02-04T02:42:32;7.40;99.90
52889;DHT22;41413;52.770;6.892;2024-02-04T02:45:00;7.30;99.90
52889;DHT22;41413;52.770;6.892;2024-02-04T02:47:29;7.30;99.90
52889;DHT22;41413;52.770;6.892;2024-02-04T02:49:56;7.20;99.90
52889;DHT22;41413;52.770;6.892;2024-02-04T02:52:23;7.20;99.90
52889;DHT22;41413;52.770;6.892;2024-02-04T02:54:49;7.10;99.90
52889;DHT22;41413;52.770;6.892;2024-02-04T02:57:17;7.20;99.90
52889;DHT22;41413;52.770;6.892;2024-02-04T02:59:43;7.20;99.90
52889;DHT22;41413;52.770;6.892;2024-02-04T03:02:10;7.20;99.90
52889;DHT22;41413;52.770;6.892;2024-02-04T03:04:37;7.10;99.90
52889;DHT22;41413;52.770;6.892;2024-02-04T03:07:05;7.10;99.90
52889;DHT22;41413;52.770;6.892;2024-02-04T03:09:34;7.10;99.90
52889;DHT22;41413;52.770;6.892;2024-02-04T03:12:01;7.10;99.90
52889;DHT22;41413;52.770;6.892;2024-02-04T03:14:27;7.10;99.90
52889;DHT22;41413;52.770;6.892;2024-02-04T03:16:54;7.20;99.90
52889;DHT22;41413;52.770;6.892;2024-02-04T03:19:21;7.30;99.90
52889;DHT22;41413;52.770;6.892;2024-02-04T03:21:48;7.30;99.90
52889;DHT22;41413;52.770;6.892;2024-02-04T03:24:14;7.20;99.90
52889;DHT22;41413;52.770;6.892;2024-02-04T03:26:41;7.20;99.90
52889;DHT22;41413;52.770;6.892;2024-02-04T03:29:08;7.20;99.90
52889;DHT22;41413;52.770;6.892;2024-02-04T03:31:35;7.20;99.90
52889;DHT22;41413;52.770;6.892;2024-02-04T03:34:01;7.20;99.90
52889;DHT22;41413;52.770;6.892;2024-02-04T03:36:30;7.20;99.90
52889;DHT22;41413;52.770;6.892;2024-02-04T03:38:57;7.20;99.90
52889;DHT22;41413;52.770;6.892;2024-02-04T03:41:24;7.20;99.90
52889;DHT22;41413;52.770;6.892;2024-02-04T03:43:51;7.20;99.90
52889;DHT22;41413;52.770;6.892;2024-02-04T03:46:17;7.20;99.90
52889;DHT22;41413;52.770;6.892;2024-02-04T03:48:44;7.20;99.90
52889;DHT22;41413;52.770;6.892;2024-02-04T03:51:18;7.10;99.90
52889;DHT22;41413;52.770;6.892;2024-02-04T03:53:47;7.20;99.90
52889;DHT22;41413;52.770;6.892;2024-02-04T03:56:13;7.20;99.90
52889;DHT22;41413;52.770;6.892;2024-02-04T03:58:40;7.20;99.90
52889;DHT22;41413;52.770;6.892;2024-02-04T04:01:11;7.10;99.90
52889;DHT22;41413;52.770;6.892;2024-02-04T04:03:40;7.10;99.90
52889;DHT22;41413;52.770;6.892;2024-02-04T04:06:08;7.10;99.90
52889;DHT22;41413;52.770;6.892;2024-02-04T04:08:36;7.10;99.90
52889;DHT22;41413;52.770;6.892;2024-02-04T04:11:03;7.10;99.90
52889;DHT22;41413;52.770;6.892;2024-02-04T04:13:30;7.00;99.90
52889;DHT22;41413;52.770;6.892;2024-02-04T04:16:02;7.10;99.90
52889;DHT22;41413;52.770;6.892;2024-02-04T04:18:29;7.00;99.90
52889;DHT22;41413;52.770;6.892;2024-02-04T04:20:56;7.00;99.90
52889;DHT22;41413;52.770;6.892;2024-02-04T04:23:23;7.20;99.90
52889;DHT22;41413;52.770;6.892;2024-02-04T04:25:49;7.10;99.90
52889;DHT22;41413;52.770;6.892;2024-02-04T04:28:16;6.90;99.90
52889;DHT22;41413;52.770;6.892;2024-02-04T04:30:43;6.90;99.90
52889;DHT22;41413;52.770;6.892;2024-02-04T04:33:10;6.90;99.90
52889;DHT22;41413;52.770;6.892;2024-02-04T04:35:38;6.90;99.90
52889;DHT22;41413;52.770;6.892;2024-02-04T04:38:05;7.00;99.90
52889;DHT22;41413;52.770;6.892;2024-02-04T04:40:32;7.00;99.90
52889;DHT22;41413;52.770;6.892;2024-02-04T04:42:59;6.90;99.90
52889;DHT22;41413;52.770;6.892;2024-02-04T04:45:26;6.90;99.90
52889;DHT22;41413;52.770;6.892;2024-02-04T04:47:53;6.90;99.90
52889;DHT22;41413;52.770;6.892;2024-02-04T04:50:20;6.90;99.90
52889;DHT22;41413;52.770;6.892;2024-02-04T04:52:46;6.90;99.90
52889;DHT22;41413;52.770;6.892;2024-02-04T04:55:13;6.80;99.90
52889;DHT22;41413;52.770;6.892;2024-02-04T04:57:40;6.80;99.90
52889;DHT22;41413;52.770;6.892;2024-02-04T05:00:07;6.90;99.90
52889;DHT22;41413;52.770;6.892;2024-02-04T05:02:37;7.00;99.90
52889;DHT22;41413;52.770;6.892;2024-02-04T05:05:04;7.00;99.90
52889;DHT22;41413;52.770;6.892;2024-02-04T05:07:31;6.90;99.90
52889;DHT22;41413;52.770;6.892;2024-02-04T05:09:58;7.00;99.90
52889;DHT22;41413;52.770;6.892;2024-02-04T05:12:25;6.90;99.90
52889;DHT22;41413;52.770;6.892;2024-02-04T05:14:52;6.80;99.90
52889;DHT22;41413;52.770;6.892;2024-02-04T05:17:18;6.80;99.90
52889;DHT22;41413;52.770;6.892;2024-02-04T05:19:45;6.70;99.90
52889;DHT22;41413;52.770;6.892;2024-02-04T05:22:12;6.90;99.90
52889;DHT22;41413;52.770;6.892;2024-02-04T05:24:39;6.90;99.90
52889;DHT22;41413;52.770;6.892;2024-02-04T05:27:05;6.90;99.90
52889;DHT22;41413;52.770;6.892;2024-02-04T05:29:32;6.90;99.90
52889;DHT22;41413;52.770;6.892;2024-02-04T05:31:59;6.90;99.90
52889;DHT22;41413;52.770;6.892;2024-02-04T05:34:26;6.90;99.90
52889;DHT22;41413;52.770;6.892;2024-02-04T05:36:53;6.90;99.90
52889;DHT22;41413;52.770;6.892;2024-02-04T05:39:20;6.90;99.90
52889;DHT22;41413;52.770;6.892;2024-02-04T05:41:47;6.90;99.90
52889;DHT22;41413;52.770;6.892;2024-02-04T05:44:13;6.90;99.90
52889;DHT22;41413;52.770;6.892;2024-02-04T05:46:40;7.00;99.90
52889;DHT22;41413;52.770;6.892;2024-02-04T05:49:07;7.00;99.90
52889;DHT22;41413;52.770;6.892;2024-02-04T05:51:41;7.00;99.90
52889;DHT22;41413;52.770;6.892;2024-02-04T05:54:08;7.00;99.90
52889;DHT22;41413;52.770;6.892;2024-02-04T05:56:35;7.00;99.90
52889;DHT22;41413;52.770;6.892;2024-02-04T05:59:02;7.20;99.90
52889;DHT22;41413;52.770;6.892;2024-02-04T06:01:29;7.20;99.90
52889;DHT22;41413;52.770;6.892;2024-02-04T06:03:55;7.20;99.90
52889;DHT22;41413;52.770;6.892;2024-02-04T06:06:22;7.10;99.90
52889;DHT22;41413;52.770;6.892;2024-02-04T06:08:49;7.10;99.90
52889;DHT22;41413;52.770;6.892;2024-02-04T06:11:16;7.10;99.90
52889;DHT22;41413;52.770;6.892;2024-02-04T06:13:44;7.20;99.90
52889;DHT22;41413;52.770;6.892;2024-02-04T06:16:11;7.10;99.90
52889;DHT22;41413;52.770;6.892;2024-02-04T06:18:39;7.00;99.90
52889;DHT22;41413;52.770;6.892;2024-02-04T06:21:06;7.10;99.90
52889;DHT22;41413;52.770;6.892;2024-02-04T06:23:34;7.20;99.90
52889;DHT22;41413;52.770;6.892;2024-02-04T06:26:01;7.20;99.90
52889;DHT22;41413;52.770;6.892;2024-02-04T06:28:28;7.20;99.90
52889;DHT22;41413;52.770;6.892;2024-02-04T06:30:55;7.20;99.90
52889;DHT22;41413;52.770;6.892;2024-02-04T06:33:22;7.20;99.90
52889;DHT22;41413;52.770;6.892;2024-02-04T06:35:51;7.30;99.90
52889;DHT22;41413;52.770;6.892;2024-02-04T06:38:18;7.30;99.90
52889;DHT22;41413;52.770;6.892;2024-02-04T06:40:45;7.30;99.90
52889;DHT22;41413;52.770;6.892;2024-02-04T06:43:12;7.30;99.90
52889;DHT22;41413;52.770;6.892;2024-02-04T06:45:39;7.30;99.90
52889;DHT22;41413;52.770;6.892;2024-02-04T06:48:06;7.30;99.90
52889;DHT22;41413;52.770;6.892;2024-02-04T06:50:34;7.30;99.90
52889;DHT22;41413;52.770;6.892;2024-02-04T06:53:01;7.30;99.90
52889;DHT22;41413;52.770;6.892;2024-02-04T06:55:27;7.30;99.90
52889;DHT22;41413;52.770;6.892;2024-02-04T06:57:54;7.20;99.90
52889;DHT22;41413;52.770;6.892;2024-02-04T07:00:21;7.30;99.90
52889;DHT22;41413;52.770;6.892;2024-02-04T07:02:48;7.30;99.90
52889;DHT22;41413;52.770;6.892;2024-02-04T07:05:15;7.30;99.90
52889;DHT22;41413;52.770;6.892;2024-02-04T07:07:42;7.30;99.90
52889;DHT22;41413;52.770;6.892;2024-02-04T07:10:10;7.30;99.90
52889;DHT22;41413;52.770;6.892;2024-02-04T07:12:37;7.30;99.90
52889;DHT22;41413;52.770;6.892;2024-02-04T07:15:04;7.40;99.90
52889;DHT22;41413;52.770;6.892;2024-02-04T07:17:31;7.40;99.90
52889;DHT22;41413;52.770;6.892;2024-02-04T07:19:58;7.30;99.90
52889;DHT22;41413;52.770;6.892;2024-02-04T07:22:25;7.40;99.90
52889;DHT22;41413;52.770;6.892;2024-02-04T07:24:52;7.50;99.90
52889;DHT22;41413;52.770;6.892;2024-02-04T07:27:19;7.40;99.90
52889;DHT22;41413;52.770;6.892;2024-02-04T07:29:46;7.30;99.90
52889;DHT22;41413;52.770;6.892;2024-02-04T07:32:14;7.30;99.90
52889;DHT22;41413;52.770;6.892;2024-02-04T07:34:41;7.30;99.90
52889;DHT22;41413;52.770;6.892;2024-02-04T07:37:08;7.30;99.90
52889;DHT22;41413;52.770;6.892;2024-02-04T07:39:35;7.30;99.90
52889;DHT22;41413;52.770;6.892;2024-02-04T07:42:02;7.40;99.90
52889;DHT22;41413;52.770;6.892;2024-02-04T07:44:29;7.40;99.90
52889;DHT22;41413;52.770;6.892;2024-02-04T07:46:56;7.30;99.90
52889;DHT22;41413;52.770;6.892;2024-02-04T07:49:23;7.40;99.90
52889;DHT22;41413;52.770;6.892;2024-02-04T07:51:50;7.40;99.90
52889;DHT22;41413;52.770;6.892;2024-02-04T07:54:17;7.40;99.90
52889;DHT22;41413;52.770;6.892;2024-02-04T07:56:44;7.40;99.90
52889;DHT22;41413;52.770;6.892;2024-02-04T07:59:10;7.40;99.90
52889;DHT22;41413;52.770;6.892;2024-02-04T08:01:37;7.40;99.90
52889;DHT22;41413;52.770;6.892;2024-02-04T08:04:04;7.40;99.90
52889;DHT22;41413;52.770;6.892;2024-02-04T08:06:33;7.40;99.90
52889;DHT22;41413;52.770;6.892;2024-02-04T08:09:01;7.50;99.90
52889;DHT22;41413;52.770;6.892;2024-02-04T08:11:28;7.50;99.90
52889;DHT22;41413;52.770;6.892;2024-02-04T08:13:55;7.50;99.90
52889;DHT22;41413;52.770;6.892;2024-02-04T08:16:22;7.50;99.90
52889;DHT22;41413;52.770;6.892;2024-02-04T08:18:49;7.50;99.90
52889;DHT22;41413;52.770;6.892;2024-02-04T08:21:16;7.60;99.90
52889;DHT22;41413;52.770;6.892;2024-02-04T08:23:43;7.60;99.90
52889;DHT22;41413;52.770;6.892;2024-02-04T08:26:11;7.60;99.90
52889;DHT22;41413;52.770;6.892;2024-02-04T08:28:38;7.80;99.90
52889;DHT22;41413;52.770;6.892;2024-02-04T08:31:04;7.70;99.90
52889;DHT22;41413;52.770;6.892;2024-02-04T08:33:32;7.70;99.90
52889;DHT22;41413;52.770;6.892;2024-02-04T08:35:59;7.80;99.90
52889;DHT22;41413;52.770;6.892;2024-02-04T08:38:25;7.80;99.90
52889;DHT22;41413;52.770;6.892;2024-02-04T08:40:52;7.80;99.90
52889;DHT22;41413;52.770;6.892;2024-02-04T08:43:19;7.80;99.90
52889;DHT22;41413;52.770;6.892;2024-02-04T08:45:45;7.90;99.90
52889;DHT22;41413;52.770;6.892;2024-02-04T08:48:12;7.90;99.90
52889;DHT22;41413;52.770;6.892;2024-02-04T08:50:39;7.90;99.90
52889;DHT22;41413;52.770;6.892;2024-02-04T08:53:06;7.90;99.90
52889;DHT22;41413;52.770;6.892;2024-02-04T08:55:33;8.00;99.90
52889;DHT22;41413;52.770;6.892;2024-02-04T08:58:00;8.10;99.90
52889;DHT22;41413;52.770;6.892;2024-02-04T09:00:27;8.20;99.90
52889;DHT22;41413;52.770;6.892;2024-02-04T09:02:53;8.10;99.90
52889;DHT22;41413;52.770;6.892;2024-02-04T09:05:20;8.30;99.90
52889;DHT22;41413;52.770;6.892;2024-02-04T09:07:47;8.30;99.90
52889;DHT22;41413;52.770;6.892;2024-02-04T09:10:14;8.40;99.90
52889;DHT22;41413;52.770;6.892;2024-02-04T09:12:41;8.40;99.90
52889;DHT22;41413;52.770;6.892;2024-02-04T09:15:08;8.40;99.90
52889;DHT22;41413;52.770;6.892;2024-02-04T09:17:35;8.50;99.90
52889;DHT22;41413;52.770;6.892;2024-02-04T09:20:02;8.60;99.90
52889;DHT22;41413;52.770;6.892;2024-02-04T09:22:30;8.70;99.90
52889;DHT22;41413;52.770;6.892;2024-02-04T09:24:57;8.80;99.90
52889;DHT22;41413;52.770;6.892;2024-02-04T09:27:24;8.80;99.90
52889;DHT22;41413;52.770;6.892;2024-02-04T09:29:52;9.00;99.90
52889;DHT22;41413;52.770;6.892;2024-02-04T09:32:18;9.10;99.90
52889;DHT22;41413;52.770;6.892;2024-02-04T09:34:45;9.00;99.90
52889;DHT22;41413;52.770;6.892;2024-02-04T09:37:13;9.10;99.90
52889;DHT22;41413;52.770;6.892;2024-02-04T09:39:39;9.20;99.90
52889;DHT22;41413;52.770;6.892;2024-02-04T09:42:06;9.20;99.90
52889;DHT22;41413;52.770;6.892;2024-02-04T09:44:33;9.30;99.90
52889;DHT22;41413;52.770;6.892;2024-02-04T09:47:02;9.40;99.90
52889;DHT22;41413;52.770;6.892;2024-02-04T09:49:30;9.40;99.90
52889;DHT22;41413;52.770;6.892;2024-02-04T09:51:59;9.60;99.90
52889;DHT22;41413;52.770;6.892;2024-02-04T09:54:31;10.00;99.90
52889;DHT22;41413;52.770;6.892;2024-02-04T09:57:01;10.00;99.90
52889;DHT22;41413;52.770;6.892;2024-02-04T09:59:28;9.90;99.90
52889;DHT22;41413;52.770;6.892;2024-02-04T10:01:55;9.90;99.90
52889;DHT22;41413;52.770;6.892;2024-02-04T10:04:22;9.90;99.90
52889;DHT22;41413;52.770;6.892;2024-02-04T10:06:49;9.80;99.90
52889;DHT22;41413;52.770;6.892;2024-02-04T10:09:16;9.70;99.90
52889;DHT22;41413;52.770;6.892;2024-02-04T10:11:44;9.90;99.90
52889;DHT22;41413;52.770;6.892;2024-02-04T10:14:11;9.90;99.90
52889;DHT22;41413;52.770;6.892;2024-02-04T10:16:37;10.20;99.90
52889;DHT22;41413;52.770;6.892;2024-02-04T10:19:04;10.40;99.90
52889;DHT22;41413;52.770;6.892;2024-02-04T10:21:31;10.40;99.90
52889;DHT22;41413;52.770;6.892;2024-02-04T10:23:58;10.50;99.90
52889;DHT22;41413;52.770;6.892;2024-02-04T10:26:29;10.70;99.90
52889;DHT22;41413;52.770;6.892;2024-02-04T10:29:01;11.10;99.90
52889;DHT22;41413;52.770;6.892;2024-02-04T10:31:28;11.50;99.90
52889;DHT22;41413;52.770;6.892;2024-02-04T10:33:55;11.40;99.90
52889;DHT22;41413;52.770;6.892;2024-02-04T10:36:23;11.50;99.90
52889;DHT22;41413;52.770;6.892;2024-02-04T10:38:49;11.50;99.90
52889;DHT22;41413;52.770;6.892;2024-02-04T10:41:17;11.30;99.90
52889;DHT22;41413;52.770;6.892;2024-02-04T10:43:44;11.20;99.90
52889;DHT22;41413;52.770;6.892;2024-02-04T10:46:22;11.00;99.90
52889;DHT22;41413;52.770;6.892;2024-02-04T10:48:55;10.70;99.90
52889;DHT22;41413;52.770;6.892;2024-02-04T10:51:25;10.60;99.90
52889;DHT22;41413;52.770;6.892;2024-02-04T10:53:55;10.50;99.90
52889;DHT22;41413;52.770;6.892;2024-02-04T10:58:57;10.40;99.90
52889;DHT22;41413;52.770;6.892;2024-02-04T11:01:27;10.20;99.90
52889;DHT22;41413;52.770;6.892;2024-02-04T11:03:54;10.20;99.90
52889;DHT22;41413;52.770;6.892;2024-02-04T11:06:23;10.30;99.90
52889;DHT22;41413;52.770;6.892;2024-02-04T11:08:53;10.10;99.90
52889;DHT22;41413;52.770;6.892;2024-02-04T11:11:22;10.30;99.90
52889;DHT22;41413;52.770;6.892;2024-02-04T11:13:56;10.30;99.90
52889;DHT22;41413;52.770;6.892;2024-02-04T11:16:35;10.20;99.90
52889;DHT22;41413;52.770;6.892;2024-02-04T11:25:42;9.80;99.90
52889;DHT22;41413;52.770;6.892;2024-02-04T11:27:47;9.70;99.90
52889;DHT22;41413;52.770;6.892;2024-02-04T11:30:15;9.80;99.90
52889;DHT22;41413;52.770;6.892;2024-02-04T11:32:42;9.60;99.90
52889;DHT22;41413;52.770;6.892;2024-02-04T11:35:09;9.60;99.90
52889;DHT22;41413;52.770;6.892;2024-02-04T11:37:38;9.60;99.90
52889;DHT22;41413;52.770;6.892;2024-02-04T11:40:05;9.60;99.90
52889;DHT22;41413;52.770;6.892;2024-02-04T11:42:33;9.80;99.90
52889;DHT22;41413;52.770;6.892;2024-02-04T11:45:12;9.90;99.90
52889;DHT22;41413;52.770;6.892;2024-02-04T11:47:40;9.80;99.90
52889;DHT22;41413;52.770;6.892;2024-02-04T11:50:08;9.80;99.90
52889;DHT22;41413;52.770;6.892;2024-02-04T11:52:37;9.70;99.90
52889;DHT22;41413;52.770;6.892;2024-02-04T11:55:05;9.60;99.90
52889;DHT22;41413;52.770;6.892;2024-02-04T11:57:34;9.70;99.90
52889;DHT22;41413;52.770;6.892;2024-02-04T12:00:01;9.70;99.90
52889;DHT22;41413;52.770;6.892;2024-02-04T12:02:32;9.60;99.90
52889;DHT22;41413;52.770;6.892;2024-02-04T12:05:00;9.80;99.90
52889;DHT22;41413;52.770;6.892;2024-02-04T12:07:27;9.80;99.90
52889;DHT22;41413;52.770;6.892;2024-02-04T12:09:56;9.90;99.90
52889;DHT22;41413;52.770;6.892;2024-02-04T12:12:24;10.00;99.90
52889;DHT22;41413;52.770;6.892;2024-02-04T12:14:52;10.00;99.90
52889;DHT22;41413;52.770;6.892;2024-02-04T12:17:19;9.80;99.90
52889;DHT22;41413;52.770;6.892;2024-02-04T12:19:47;9.80;99.90
52889;DHT22;41413;52.770;6.892;2024-02-04T12:22:14;10.00;99.90
52889;DHT22;41413;52.770;6.892;2024-02-04T12:24:40;9.90;99.90
52889;DHT22;41413;52.770;6.892;2024-02-04T12:27:07;9.80;99.90
52889;DHT22;41413;52.770;6.892;2024-02-04T12:29:34;9.90;99.90
52889;DHT22;41413;52.770;6.892;2024-02-04T12:32:02;9.90;99.90
52889;DHT22;41413;52.770;6.892;2024-02-04T12:34:30;10.00;99.90
52889;DHT22;41413;52.770;6.892;2024-02-04T12:36:59;9.90;99.90
52889;DHT22;41413;52.770;6.892;2024-02-04T12:39:29;10.00;99.90
52889;DHT22;41413;52.770;6.892;2024-02-04T12:41:59;10.10;99.90
52889;DHT22;41413;52.770;6.892;2024-02-04T12:44:26;10.30;99.90
52889;DHT22;41413;52.770;6.892;2024-02-04T12:46:53;10.20;99.90
52889;DHT22;41413;52.770;6.892;2024-02-04T12:49:21;10.10;99.90
52889;DHT22;41413;52.770;6.892;2024-02-04T12:51:49;10.20;99.90
52889;DHT22;41413;52.770;6.892;2024-02-04T12:54:19;10.10;99.90
52889;DHT22;41413;52.770;6.892;2024-02-04T12:56:53;10.00;99.90
52889;DHT22;41413;52.770;6.892;2024-02-04T12:59:28;10.00;99.90
52889;DHT22;41413;52.770;6.892;2024-02-04T13:02:00;10.00;99.90
52889;DHT22;41413;52.770;6.892;2024-02-04T13:04:34;10.00;99.90
52889;DHT22;41413;52.770;6.892;2024-02-04T13:07:01;10.00;99.90
52889;DHT22;41413;52.770;6.892;2024-02-04T13:09:28;10.00;99.90
52889;DHT22;41413;52.770;6.892;2024-02-04T13:12:03;10.00;99.90
52889;DHT22;41413;52.770;6.892;2024-02-04T13:14:31;10.10;99.90
52889;DHT22;41413;52.770;6.892;2024-02-04T13:16:58;10.00;99.90
52889;DHT22;41413;52.770;6.892;2024-02-04T13:19:24;10.10;99.90
52889;DHT22;41413;52.770;6.892;2024-02-04T13:21:51;10.00;99.90
52889;DHT22;41413;52.770;6.892;2024-02-04T13:24:18;10.00;99.90
52889;DHT22;41413;52.770;6.892;2024-02-04T13:26:45;9.80;99.90
52889;DHT22;41413;52.770;6.892;2024-02-04T13:29:12;9.80;99.90
52889;DHT22;41413;52.770;6.892;2024-02-04T13:31:39;9.80;99.90
52889;DHT22;41413;52.770;6.892;2024-02-04T13:34:06;9.80;99.90
52889;DHT22;41413;52.770;6.892;2024-02-04T13:36:33;9.70;99.90
52889;DHT22;41413;52.770;6.892;2024-02-04T13:39:00;9.80;99.90
52889;DHT22;41413;52.770;6.892;2024-02-04T13:41:27;9.70;99.90
52889;DHT22;41413;52.770;6.892;2024-02-04T13:43:53;9.60;99.90
52889;DHT22;41413;52.770;6.892;2024-02-04T13:46:20;9.60;99.90
52889;DHT22;41413;52.770;6.892;2024-02-04T13:48:47;9.60;99.90
52889;DHT22;41413;52.770;6.892;2024-02-04T13:51:14;9.60;99.90
52889;DHT22;41413;52.770;6.892;2024-02-04T13:53:47;9.70;99.90
52889;DHT22;41413;52.770;6.892;2024-02-04T13:56:14;9.70;99.90
52889;DHT22;41413;52.770;6.892;2024-02-04T13:58:41;9.70;99.90
52889;DHT22;41413;52.770;6.892;2024-02-04T14:01:09;9.70;99.90
52889;DHT22;41413;52.770;6.892;2024-02-04T14:03:36;9.70;99.90
52889;DHT22;41413;52.770;6.892;2024-02-04T14:06:03;9.60;99.90
52889;DHT22;41413;52.770;6.892;2024-02-04T14:08:30;9.70;99.90
52889;DHT22;41413;52.770;6.892;2024-02-04T14:10:57;9.70;99.90
52889;DHT22;41413;52.770;6.892;2024-02-04T14:13:23;9.70;99.90
52889;DHT22;41413;52.770;6.892;2024-02-04T14:15:50;9.70;99.90
52889;DHT22;41413;52.770;6.892;2024-02-04T14:18:19;9.70;99.90
52889;DHT22;41413;52.770;6.892;2024-02-04T14:20:45;9.70;99.90
52889;DHT22;41413;52.770;6.892;2024-02-04T14:23:12;9.70;99.90
52889;DHT22;41413;52.770;6.892;2024-02-04T14:25:39;9.70;99.90
52889;DHT22;41413;52.770;6.892;2024-02-04T14:28:06;9.70;99.90
52889;DHT22;41413;52.770;6.892;2024-02-04T14:30:33;9.70;99.90
52889;DHT22;41413;52.770;6.892;2024-02-04T14:32:59;9.70;99.90
52889;DHT22;41413;52.770;6.892;2024-02-04T14:35:26;9.70;99.90
52889;DHT22;41413;52.770;6.892;2024-02-04T14:37:53;9.70;99.90
52889;DHT22;41413;52.770;6.892;2024-02-04T14:40:19;9.60;99.90
52889;DHT22;41413;52.770;6.892;2024-02-04T14:42:47;9.60;99.90
52889;DHT22;41413;52.770;6.892;2024-02-04T14:45:13;9.50;99.90
52889;DHT22;41413;52.770;6.892;2024-02-04T14:47:40;9.50;99.90
52889;DHT22;41413;52.770;6.892;2024-02-04T14:50:07;9.50;99.90
52889;DHT22;41413;52.770;6.892;2024-02-04T14:52:34;9.50;99.90
52889;DHT22;41413;52.770;6.892;2024-02-04T14:55:01;9.50;99.90
52889;DHT22;41413;52.770;6.892;2024-02-04T14:57:28;9.50;99.90
52889;DHT22;41413;52.770;6.892;2024-02-04T14:59:55;9.50;99.90
52889;DHT22;41413;52.770;6.892;2024-02-04T15:02:22;9.50;99.90
52889;DHT22;41413;52.770;6.892;2024-02-04T15:04:49;9.50;99.90
52889;DHT22;41413;52.770;6.892;2024-02-04T15:07:16;9.40;99.90
52889;DHT22;41413;52.770;6.892;2024-02-04T15:09:42;9.30;99.90
52889;DHT22;41413;52.770;6.892;2024-02-04T15:12:10;9.30;99.90
52889;DHT22;41413;52.770;6.892;2024-02-04T15:14:37;9.20;99.90
52889;DHT22;41413;52.770;6.892;2024-02-04T15:17:04;9.10;99.90
52889;DHT22;41413;52.770;6.892;2024-02-04T15:19:31;9.10;99.90
52889;DHT22;41413;52.770;6.892;2024-02-04T15:22:03;9.10;99.90
52889;DHT22;41413;52.770;6.892;2024-02-04T15:24:30;9.10;99.90
52889;DHT22;41413;52.770;6.892;2024-02-04T15:26:59;9.10;99.90
52889;DHT22;41413;52.770;6.892;2024-02-04T15:29:35;9.10;99.90
52889;DHT22;41413;52.770;6.892;2024-02-04T15:32:03;9.00;99.90
52889;DHT22;41413;52.770;6.892;2024-02-04T15:34:30;9.00;99.90
52889;DHT22;41413;52.770;6.892;2024-02-04T15:36:59;9.10;99.90
52889;DHT22;41413;52.770;6.892;2024-02-04T15:39:26;9.00;99.90
52889;DHT22;41413;52.770;6.892;2024-02-04T15:41:53;9.00;99.90
52889;DHT22;41413;52.770;6.892;2024-02-04T15:44:20;9.00;99.90
52889;DHT22;41413;52.770;6.892;2024-02-04T15:46:48;9.20;99.90
52889;DHT22;41413;52.770;6.892;2024-02-04T15:49:18;9.10;99.90
52889;DHT22;41413;52.770;6.892;2024-02-04T15:51:46;9.10;99.90
52889;DHT22;41413;52.770;6.892;2024-02-04T15:54:13;9.20;99.90
52889;DHT22;41413;52.770;6.892;2024-02-04T15:56:42;9.30;99.90
52889;DHT22;41413;52.770;6.892;2024-02-04T15:59:13;9.40;99.90
52889;DHT22;41413;52.770;6.892;2024-02-04T16:01:40;9.30;99.90